Weather at El Dorado International Airport

Public forecast

Using degrees Celsius for public forecast. Weather courtesy of forecast.io.

Current aviation weather report (METAR) for El Dorado International Airport

2024/06/14 15:00 (retrieved 46 minutes ago)

SKBO 141500Z 04006KT 9999 BKN025 SCT088 17/11 Q1029 NOSIG

Aviation forecast (TAF) for El Dorado International Airport

2024/06/14 12:57 (retrieved 3 hours ago)

TAF SKBO 141030Z 1412/1512 VRB02KT 9999 SCT020 BECMG 1414/1416 12010KT TEMPO 1419/1423 26010KT RADZ SCT017TCU BECMG 1500/1502 VRB02KT PROB40 1508/1512 5000 BCFG TX22/1419Z TN10/1510Z